createdAt,value
2018-04-28T00:00:27.577Z,67.50
2018-04-28T00:02:54.632Z,68.10
2018-04-28T00:05:21.682Z,69.50
2018-04-28T00:07:48.749Z,69.00
2018-04-28T00:10:15.801Z,68.70
2018-04-28T00:12:42.861Z,68.90
2018-04-28T00:15:10.689Z,70.30
2018-04-28T00:17:39.143Z,69.40
2018-04-28T00:20:06.191Z,69.40
2018-04-28T00:22:34.217Z,69.30
2018-04-28T00:25:07.153Z,69.40
2018-04-28T00:27:34.869Z,69.30
2018-04-28T00:30:06.630Z,69.40
2018-04-28T00:32:33.705Z,69.30
2018-04-28T00:35:00.749Z,70.20
2018-04-28T00:37:28.598Z,70.10
2018-04-28T00:39:57.209Z,70.20
2018-04-28T00:42:33.729Z,69.80
2018-04-28T00:45:19.540Z,70.30
2018-04-28T00:47:49.049Z,71.90
2018-04-28T00:50:20.801Z,71.10
2018-04-28T00:52:48.621Z,71.40
2018-04-28T00:55:32.495Z,71.30
2018-04-28T00:58:19.173Z,71.90
2018-04-28T01:01:06.145Z,71.80
2018-04-28T01:16:54.065Z,71.10
2018-04-28T01:19:23.868Z,70.60
2018-04-28T01:21:51.685Z,70.30
2018-04-28T01:24:18.734Z,70.20
2018-04-28T01:26:45.793Z,70.20
2018-04-28T01:29:12.854Z,70.00
2018-04-28T01:31:39.961Z,70.00
2018-04-28T01:34:07.794Z,70.00
2018-04-28T01:36:35.632Z,69.90
2018-04-28T01:39:02.681Z,69.70
2018-04-28T01:41:29.749Z,69.80
2018-04-28T01:43:56.817Z,69.70
2018-04-28T01:46:27.609Z,69.70
2018-04-28T01:48:55.471Z,69.70
2018-04-28T01:51:28.601Z,69.80
2018-04-28T01:54:11.305Z,70.10
2018-04-28T01:56:44.189Z,69.80
2018-04-28T01:59:11.245Z,70.20
2018-04-28T02:01:41.936Z,69.90
2018-04-28T02:04:09.664Z,69.70
2018-04-28T02:06:37.524Z,69.40
2018-04-28T02:09:20.240Z,69.50
2018-04-28T02:11:51.992Z,69.50
2018-04-28T02:14:21.741Z,69.40
2018-04-28T02:16:49.581Z,69.60
2018-04-28T02:19:20.561Z,70.60
2018-04-28T02:21:49.529Z,70.50
2018-04-28T02:24:34.277Z,70.80
2018-04-28T02:27:02.003Z,70.90
2018-04-28T02:29:29.853Z,71.00
2018-04-28T02:31:58.753Z,71.00
2018-04-28T02:34:36.649Z,71.30
2018-04-28T02:37:23.485Z,71.10
2018-04-28T02:39:50.530Z,71.50
2018-04-28T02:42:23.394Z,70.80
2018-04-28T02:45:07.267Z,72.50
2018-04-28T02:47:45.006Z,71.00
2018-04-28T02:50:14.149Z,71.00
2018-04-28T02:52:46.929Z,71.00
2018-04-28T02:55:19.886Z,71.00
2018-04-28T02:58:05.813Z,70.80
2018-04-28T03:00:32.892Z,70.90
2018-04-28T03:03:04.843Z,71.60
2018-04-28T03:05:34.021Z,72.20
2018-04-28T03:21:24.635Z,75.70
2018-04-28T03:24:07.818Z,75.40
2018-04-28T03:26:37.226Z,75.40
2018-04-28T03:29:09.120Z,75.70
2018-04-28T03:31:39.424Z,74.00
2018-04-28T03:34:16.607Z,73.80
2018-04-28T03:36:50.917Z,73.50
2018-04-28T03:39:23.898Z,73.90
2018-04-28T03:41:55.887Z,73.70
2018-04-28T03:57:56.612Z,73.20
2018-04-28T04:00:36.894Z,73.00
2018-04-28T04:03:10.958Z,73.00
2018-04-28T04:19:18.725Z,73.70
2018-04-28T04:21:55.241Z,73.70
2018-04-28T04:24:29.563Z,73.90
2018-04-28T04:27:06.597Z,73.90
2018-04-28T04:29:38.356Z,73.90
2018-04-28T04:32:06.665Z,74.00
2018-04-28T04:48:13.729Z,76.70
2018-04-28T05:04:29.974Z,77.60
2018-04-28T05:07:05.905Z,77.50
2018-04-28T05:09:37.006Z,78.30
2018-04-28T05:12:12.157Z,78.80
2018-04-28T05:14:48.653Z,79.00
2018-04-28T05:17:36.651Z,79.60
2018-04-28T05:20:31.037Z,80.20
2018-04-28T05:23:21.306Z,80.10
2018-04-28T05:25:54.782Z,79.70
2018-04-28T05:28:34.042Z,79.20
2018-04-28T05:31:12.238Z,79.30
2018-04-28T05:47:06.693Z,79.40
2018-04-28T05:49:40.367Z,79.70
2018-04-28T05:52:13.224Z,79.50
2018-04-28T05:54:56.114Z,80.00
2018-04-28T05:57:42.010Z,80.10
2018-04-28T06:00:10.007Z,80.10
2018-04-28T06:02:54.029Z,79.70
2018-04-28T06:05:26.002Z,79.00
2018-04-28T06:07:59.023Z,78.90
2018-04-28T06:10:31.989Z,79.20
2018-04-28T06:13:04.871Z,79.00
2018-04-28T06:15:33.772Z,78.60
2018-04-28T06:18:15.720Z,78.90
2018-04-28T06:20:42.778Z,78.90
2018-04-28T06:23:09.820Z,78.50
2018-04-28T06:25:36.978Z,77.90
2018-04-28T06:28:04.037Z,77.80
2018-04-28T06:30:31.085Z,77.80
2018-04-28T06:32:58.149Z,78.20
2018-04-28T06:35:25.196Z,78.10
2018-04-28T06:37:52.261Z,77.60
2018-04-28T06:40:19.761Z,76.70
2018-04-28T06:42:47.289Z,77.10
2018-04-28T06:45:14.825Z,76.90
2018-04-28T06:47:42.335Z,76.10
2018-04-28T06:50:09.841Z,75.40
2018-04-28T06:52:37.337Z,75.20
2018-04-28T06:55:05.610Z,75.00
2018-04-28T06:57:33.886Z,74.60
2018-04-28T07:00:02.178Z,75.40
2018-04-28T07:02:30.454Z,73.80
2018-04-28T07:04:58.718Z,73.30
2018-04-28T07:07:26.994Z,73.30
2018-04-28T07:09:55.307Z,72.60
2018-04-28T07:12:22.801Z,72.50
2018-04-28T07:14:50.323Z,72.40
2018-04-28T07:17:17.840Z,72.70
2018-04-28T07:19:45.342Z,71.80
2018-04-28T07:22:12.905Z,71.80
2018-04-28T07:24:40.412Z,71.20
2018-04-28T07:27:07.930Z,71.70
2018-04-28T07:29:35.466Z,72.70
2018-04-28T07:32:02.541Z,70.70
2018-04-28T07:34:30.109Z,71.00
2018-04-28T07:36:57.243Z,70.70
2018-04-28T07:39:24.964Z,70.60
2018-04-28T07:41:52.844Z,71.10
2018-04-28T07:44:20.769Z,71.10
2018-04-28T07:46:49.088Z,70.40
2018-04-28T07:49:17.393Z,68.50
2018-04-28T07:51:44.893Z,68.50
2018-04-28T07:54:12.401Z,67.30
2018-04-28T07:56:39.966Z,67.20
2018-04-28T07:59:08.201Z,65.90
2018-04-28T08:01:35.249Z,65.90
2018-04-28T08:04:03.518Z,72.50
2018-04-28T08:06:31.803Z,53.70
2018-04-28T08:09:00.092Z,42.10
2018-04-28T08:11:28.374Z,32.40
2018-04-28T08:13:56.662Z,29.90
2018-04-28T08:16:24.165Z,29.80
2018-04-28T08:18:51.689Z,26.40
2018-04-28T08:21:19.185Z,23.90
2018-04-28T08:23:46.687Z,25.20
2018-04-28T08:26:14.949Z,24.70
2018-04-28T08:28:42.525Z,24.60
2018-04-28T08:31:10.050Z,21.20
2018-04-28T08:33:37.557Z,23.30
2018-04-28T08:36:05.118Z,25.70
2018-04-28T08:38:32.638Z,28.40
2018-04-28T08:41:00.913Z,32.00
2018-04-28T08:43:29.217Z,35.20
2018-04-28T08:45:56.718Z,35.80
2018-04-28T08:48:24.256Z,37.00
2018-04-28T08:50:51.758Z,39.10
2018-04-28T08:53:19.258Z,42.70
2018-04-28T08:55:46.770Z,44.10
2018-04-28T08:58:14.289Z,44.30
2018-04-28T09:00:42.589Z,44.50
2018-04-28T09:03:10.105Z,44.90
2018-04-28T09:05:37.623Z,45.90
2018-04-28T09:08:05.125Z,46.80
2018-04-28T09:10:32.630Z,48.60
2018-04-28T09:13:00.155Z,49.10
2018-04-28T09:15:27.641Z,50.40
2018-04-28T09:17:55.142Z,51.50
2018-04-28T09:20:23.426Z,50.80
2018-04-28T09:22:50.500Z,50.70
2018-04-28T09:25:17.560Z,51.30
2018-04-28T09:27:44.609Z,53.50
2018-04-28T09:30:11.677Z,53.40
2018-04-28T09:32:38.771Z,53.40
2018-04-28T09:35:06.269Z,54.40
2018-04-28T09:37:33.317Z,54.20
2018-04-28T09:40:00.400Z,54.30
2018-04-28T09:42:27.422Z,54.10
2018-04-28T09:44:54.477Z,52.80
2018-04-28T09:47:21.537Z,52.00
2018-04-28T09:49:48.586Z,52.10
2018-04-28T09:52:15.645Z,51.80
2018-04-28T09:54:42.721Z,51.30
2018-04-28T09:57:09.876Z,50.80
2018-04-28T09:59:36.918Z,50.40
2018-04-28T10:02:09.786Z,50.60
2018-04-28T10:04:37.609Z,53.30
2018-04-28T10:07:04.653Z,53.20
2018-04-28T10:09:32.173Z,54.40
2018-04-28T10:11:59.670Z,54.00
2018-04-28T10:14:27.181Z,56.60
2018-04-28T10:16:54.693Z,54.50
2018-04-28T10:19:22.185Z,54.10
2018-04-28T10:21:50.449Z,55.30
2018-04-28T10:24:17.942Z,55.30
2018-04-28T10:26:45.460Z,53.50
2018-04-28T10:29:12.982Z,53.10
2018-04-28T10:31:40.477Z,54.10
2018-04-28T10:34:07.996Z,54.40
2018-04-28T10:36:35.501Z,53.90
2018-04-28T10:39:02.997Z,53.40
2018-04-28T10:41:30.501Z,52.90
2018-04-28T10:43:59.513Z,55.40
2018-04-28T10:46:27.782Z,55.00
2018-04-28T10:48:55.286Z,55.00
2018-04-28T10:51:22.798Z,55.10
2018-04-28T10:53:50.362Z,53.90
2018-04-28T10:56:17.810Z,54.40
2018-04-28T10:58:45.314Z,54.00
2018-04-28T11:01:12.879Z,55.00
2018-04-28T11:03:40.383Z,53.80
2018-04-28T11:06:07.902Z,53.70
2018-04-28T11:08:35.420Z,54.00
2018-04-28T11:11:03.697Z,54.20
2018-04-28T11:13:31.988Z,52.30
2018-04-28T11:15:59.489Z,52.20
2018-04-28T11:18:26.985Z,52.50
2018-04-28T11:20:54.501Z,51.10
2018-04-28T11:23:22.185Z,50.60
2018-04-28T11:25:49.720Z,50.30
2018-04-28T11:28:17.216Z,50.40
2018-04-28T11:30:44.748Z,49.80
2018-04-28T11:33:12.241Z,52.00
2018-04-28T11:35:40.617Z,51.40
2018-04-28T11:38:08.241Z,50.20
2018-04-28T11:40:35.749Z,49.20
2018-04-28T11:43:04.011Z,51.20
2018-04-28T11:45:32.275Z,50.00
2018-04-28T11:48:00.538Z,50.60
2018-04-28T11:50:28.034Z,50.30
2018-04-28T11:52:56.293Z,49.90
2018-04-28T11:55:23.801Z,49.80
2018-04-28T11:57:51.313Z,48.90
2018-04-28T12:00:19.577Z,49.20
2018-04-28T12:02:47.092Z,49.20
2018-04-28T12:05:14.671Z,47.40
2018-04-28T12:07:42.898Z,47.20
2018-04-28T12:10:11.162Z,47.20
2018-04-28T12:12:39.512Z,48.00
2018-04-28T12:15:06.945Z,47.90
2018-04-28T12:17:34.437Z,47.50
2018-04-28T12:20:01.952Z,46.70
2018-04-28T12:22:29.446Z,45.90
2018-04-28T12:24:56.942Z,47.60
2018-04-28T12:27:25.205Z,45.00
2018-04-28T12:29:52.728Z,45.00
2018-04-28T12:32:20.230Z,43.90
2018-04-28T12:34:48.496Z,44.40
2018-04-28T12:37:15.985Z,44.40
2018-04-28T12:39:43.541Z,42.60
2018-04-28T12:42:11.813Z,42.40
2018-04-28T12:44:40.087Z,41.60
2018-04-28T12:47:08.348Z,41.70
2018-04-28T12:49:36.621Z,42.70
2018-04-28T12:52:04.125Z,42.70
2018-04-28T12:54:31.930Z,42.50
2018-04-28T12:57:00.293Z,41.20
2018-04-28T12:59:27.827Z,41.10
2018-04-28T13:01:55.329Z,41.10
2018-04-28T13:04:24.325Z,41.30
2018-04-28T13:06:51.817Z,41.20
2018-04-28T13:09:20.078Z,41.10
2018-04-28T13:11:48.338Z,41.00
2018-04-28T13:14:16.606Z,41.10
2018-04-28T13:16:44.142Z,41.20
2018-04-28T13:19:11.648Z,41.00
2018-04-28T13:21:39.917Z,42.00
2018-04-28T13:24:07.421Z,41.90
2018-04-28T13:26:34.949Z,40.10
2018-04-28T13:29:03.226Z,39.80
2018-04-28T13:31:31.485Z,39.00
2018-04-28T13:33:58.977Z,38.80
2018-04-28T13:36:26.482Z,39.00
2018-04-28T13:38:53.973Z,41.00
2018-04-28T13:41:22.229Z,40.10
2018-04-28T13:43:49.725Z,40.00
2018-04-28T13:46:17.234Z,39.00
2018-04-28T13:48:44.750Z,39.50
2018-04-28T13:51:12.254Z,40.80
2018-04-28T13:53:39.771Z,41.60
2018-04-28T13:56:07.341Z,42.50
2018-04-28T13:58:35.677Z,42.30
2018-04-28T14:01:03.954Z,41.90
2018-04-28T14:03:32.233Z,43.10
2018-04-28T14:06:00.514Z,42.60
2018-04-28T14:08:28.778Z,41.70
2018-04-28T14:10:57.289Z,42.00
2018-04-28T14:13:24.794Z,42.00
2018-04-28T14:15:52.310Z,42.50
2018-04-28T14:18:19.833Z,42.30
2018-04-28T14:20:47.357Z,42.50
2018-04-28T14:23:14.869Z,42.60
2018-04-28T14:25:43.129Z,43.00
2018-04-28T14:28:11.389Z,43.40
2018-04-28T14:30:39.663Z,42.90
2018-04-28T14:33:07.153Z,42.90
2018-04-28T14:35:35.437Z,43.20
2018-04-28T14:38:02.929Z,43.20
2018-04-28T14:40:30.437Z,42.70
2018-04-28T14:42:58.722Z,40.60
2018-04-28T14:45:27.002Z,39.80
2018-04-28T14:47:54.520Z,39.70
2018-04-28T14:50:22.018Z,39.40
2018-04-28T14:52:50.348Z,37.90
2018-04-28T14:55:18.561Z,37.60
2018-04-28T14:57:46.833Z,36.70
2018-04-28T15:00:15.096Z,37.40
2018-04-28T15:02:43.363Z,36.30
2018-04-28T15:05:10.854Z,36.10
2018-04-28T15:07:39.117Z,36.70
2018-04-28T15:10:07.406Z,37.00
2018-04-28T15:12:35.698Z,35.90
2018-04-28T15:15:03.207Z,35.80
2018-04-28T15:17:30.737Z,36.00
2018-04-28T15:19:58.246Z,36.30
2018-04-28T15:22:26.510Z,37.70
2018-04-28T15:24:54.778Z,38.40
2018-04-28T15:27:22.271Z,38.40
2018-04-28T15:29:50.545Z,38.40
2018-04-28T15:32:18.806Z,38.20
2018-04-28T15:34:46.302Z,38.20
2018-04-28T15:37:13.841Z,38.20
2018-04-28T15:39:42.097Z,38.80
2018-04-28T15:42:09.606Z,38.70
2018-04-28T15:44:37.101Z,39.10
2018-04-28T15:47:04.605Z,39.40
2018-04-28T15:49:32.178Z,39.20
2018-04-28T15:51:59.673Z,40.20
2018-04-28T15:54:27.181Z,39.60
2018-04-28T15:56:54.693Z,39.60
2018-04-28T15:59:22.185Z,40.30
2018-04-28T16:01:50.450Z,39.70
2018-04-28T16:04:18.743Z,39.70
2018-04-28T16:06:47.014Z,40.00
2018-04-28T16:09:15.273Z,38.80
2018-04-28T16:11:42.794Z,38.80
2018-04-28T16:14:10.297Z,37.60
2018-04-28T16:16:38.558Z,38.10
2018-04-28T16:19:06.050Z,38.10
2018-04-28T16:21:33.544Z,38.50
2018-04-28T16:24:01.058Z,38.90
2018-04-28T16:26:29.321Z,40.60
2018-04-28T16:28:57.585Z,40.20
2018-04-28T16:31:25.092Z,40.10
2018-04-28T16:33:52.587Z,40.50
2018-04-28T16:36:20.217Z,41.10
2018-04-28T16:38:47.751Z,41.80
2018-04-28T16:41:16.010Z,42.90
2018-04-28T16:43:43.519Z,42.90
2018-04-28T16:46:11.018Z,43.30
2018-04-28T16:48:38.525Z,43.60
2018-04-28T16:51:06.116Z,43.50
2018-04-28T16:53:33.609Z,43.40
2018-04-28T16:56:01.894Z,44.10
2018-04-28T16:58:30.161Z,44.60
2018-04-28T17:00:58.424Z,44.70
2018-04-28T17:03:25.936Z,44.70
2018-04-28T17:05:53.425Z,44.80
2018-04-28T17:08:20.925Z,44.90
2018-04-28T17:10:49.194Z,45.10
2018-04-28T17:13:17.474Z,45.90
2018-04-28T17:15:45.734Z,44.80
2018-04-28T17:18:13.223Z,44.80
2018-04-28T17:20:40.717Z,45.90
2018-04-28T17:23:08.210Z,45.70
2018-04-28T17:25:36.481Z,45.90
2018-04-28T17:28:03.969Z,45.90
2018-04-28T17:30:32.246Z,46.30
2018-04-28T17:32:59.756Z,46.30
2018-04-28T17:35:27.253Z,46.10
2018-04-28T17:37:55.514Z,46.60
2018-04-28T17:40:24.530Z,46.60
2018-04-28T17:42:52.860Z,47.10
2018-04-28T17:45:20.329Z,47.10
2018-04-28T17:47:48.605Z,47.50
2018-04-28T17:50:17.621Z,47.60
2018-04-28T17:52:45.884Z,47.30
2018-04-28T17:55:14.163Z,47.60
2018-04-28T17:57:41.675Z,47.60
2018-04-28T18:00:09.164Z,47.70
2018-04-28T18:02:37.462Z,49.20
2018-04-28T18:05:04.979Z,48.50
2018-04-28T18:07:32.477Z,49.00
2018-04-28T18:09:59.965Z,48.80
2018-04-28T18:12:27.483Z,49.50
2018-04-28T18:14:55.814Z,49.30
2018-04-28T18:17:23.322Z,49.30
2018-04-28T18:19:50.933Z,49.60
2018-04-28T18:22:18.441Z,50.00
2018-04-28T18:24:45.966Z,50.00
2018-04-28T18:27:13.466Z,50.10
2018-04-28T18:29:41.758Z,51.40
2018-04-28T18:32:09.345Z,50.70
2018-04-28T18:34:36.853Z,50.80
2018-04-28T18:37:04.349Z,50.90
2018-04-28T18:39:31.849Z,51.00
2018-04-28T18:41:59.435Z,50.90
2018-04-28T18:44:26.889Z,51.10
2018-04-28T18:46:54.397Z,51.50
2018-04-28T18:49:21.889Z,51.30
2018-04-28T18:51:49.425Z,51.10
2018-04-28T18:54:16.921Z,51.50
2018-04-28T18:56:45.204Z,51.80
2018-04-28T18:59:12.694Z,51.70
2018-04-28T19:01:40.197Z,51.60
2018-04-28T19:04:07.845Z,51.90
2018-04-28T19:06:35.343Z,52.10
2018-04-28T19:09:03.627Z,52.60
2018-04-28T19:11:31.897Z,52.30
2018-04-28T19:13:59.392Z,52.30
2018-04-28T19:16:26.929Z,52.60
2018-04-28T19:18:55.209Z,52.20
2018-04-28T19:21:23.511Z,52.40
2018-04-28T19:23:51.040Z,52.40
2018-04-28T19:26:19.306Z,52.80
2018-04-28T19:28:47.561Z,52.80
2018-04-28T19:31:15.122Z,52.40
2018-04-28T19:33:42.573Z,52.50
2018-04-28T19:36:10.070Z,52.50
2018-04-28T19:38:38.425Z,52.50
2018-04-28T19:41:06.358Z,52.50
2018-04-28T19:43:34.701Z,52.80
2018-04-28T19:46:02.965Z,53.00
2018-04-28T19:48:31.277Z,53.10
2018-04-28T19:50:59.497Z,53.10
2018-04-28T19:53:27.753Z,53.20
2018-04-28T19:55:55.262Z,53.20
2018-04-28T19:58:23.545Z,53.40
2018-04-28T20:00:51.094Z,53.30
2018-04-28T20:03:19.369Z,53.60
2018-04-28T20:05:47.645Z,53.70
2018-04-28T20:08:15.902Z,53.70
2018-04-28T20:10:43.449Z,53.70
2018-04-28T20:13:10.937Z,53.80
2018-04-28T20:15:39.212Z,54.10
2018-04-28T20:18:07.470Z,54.30
2018-04-28T20:20:34.961Z,54.30
2018-04-28T20:23:14.377Z,54.30
2018-04-28T20:25:42.638Z,54.50
2018-04-28T20:28:10.529Z,54.50
2018-04-28T20:30:38.814Z,54.80
2018-04-28T20:33:07.069Z,54.80
2018-04-28T20:35:34.568Z,54.70
2018-04-28T20:38:02.069Z,55.50
2018-04-28T20:40:30.337Z,55.00
2018-04-28T20:42:57.891Z,54.90
2018-04-28T20:45:25.341Z,54.80
2018-04-28T20:47:52.846Z,54.90
2018-04-28T20:50:21.131Z,55.10
2018-04-28T20:52:49.382Z,55.10
2018-04-28T20:55:16.889Z,55.10
2018-04-28T20:57:44.387Z,55.00
2018-04-28T21:00:11.899Z,55.00
2018-04-28T21:02:39.389Z,55.20
2018-04-28T21:05:06.898Z,55.20
2018-04-28T21:07:35.152Z,55.40
2018-04-28T21:10:02.666Z,55.40
2018-04-28T21:12:30.179Z,55.40
2018-04-28T21:14:58.446Z,55.40
2018-04-28T21:17:27.448Z,55.40
2018-04-28T21:19:56.163Z,55.30
2018-04-28T21:22:23.653Z,55.30
2018-04-28T21:24:51.148Z,55.20
2018-04-28T21:27:18.645Z,55.20
2018-04-28T21:29:46.137Z,55.60
2018-04-28T21:32:13.641Z,56.40
2018-04-28T21:34:42.721Z,57.40
2018-04-28T21:37:11.079Z,57.60
2018-04-28T21:39:38.597Z,57.60
2018-04-28T21:42:06.126Z,57.90
2018-04-28T21:44:34.389Z,58.30
2018-04-28T21:47:01.896Z,58.20
2018-04-28T21:49:29.402Z,59.20
2018-04-28T21:51:56.915Z,58.40
2018-04-28T21:54:24.437Z,58.50
2018-04-28T21:56:52.701Z,58.70
2018-04-28T21:59:20.974Z,59.00
2018-04-28T22:01:48.462Z,59.00
2018-04-28T22:04:15.966Z,58.90
2018-04-28T22:06:43.469Z,59.10
2018-04-28T22:09:11.732Z,59.30
2018-04-28T22:11:40.070Z,59.90
2018-04-28T22:14:08.305Z,59.30
2018-04-28T22:16:35.805Z,59.30
2018-04-28T22:19:03.298Z,59.40
2018-04-28T22:21:30.785Z,59.50
2018-04-28T22:23:58.294Z,60.50
2018-04-28T22:26:25.787Z,59.70
2018-04-28T22:28:54.050Z,59.90
2018-04-28T22:31:21.547Z,59.90
2018-04-28T22:33:49.038Z,59.90
2018-04-28T22:36:16.545Z,59.80
2018-04-28T22:38:44.813Z,59.50
2018-04-28T22:41:13.092Z,59.60
2018-04-28T22:43:41.353Z,59.60
2018-04-28T22:46:09.633Z,59.70
2018-04-28T22:48:37.910Z,59.30
2018-04-28T22:51:06.172Z,59.40
2018-04-28T22:53:33.670Z,59.40
2018-04-28T22:56:01.178Z,59.50
2018-04-28T22:58:28.680Z,59.40
2018-04-28T23:00:56.173Z,59.50
2018-04-28T23:03:23.665Z,59.30
2018-04-28T23:05:51.930Z,59.20
2018-04-28T23:08:19.451Z,59.10
2018-04-28T23:10:46.946Z,59.40
2018-04-28T23:13:14.465Z,59.70
2018-04-28T23:15:41.965Z,59.50
2018-04-28T23:18:09.473Z,59.20
2018-04-28T23:20:37.014Z,59.10
2018-04-28T23:23:05.289Z,58.80
2018-04-28T23:25:33.566Z,59.20
2018-04-28T23:28:01.846Z,59.30
2018-04-28T23:30:30.121Z,59.50
2018-04-28T23:32:58.393Z,59.30
2018-04-28T23:35:26.674Z,59.30
2018-04-28T23:37:54.954Z,59.40
2018-04-28T23:40:23.229Z,60.00
2018-04-28T23:42:51.503Z,60.90
2018-04-28T23:45:19.769Z,61.50
2018-04-28T23:47:48.029Z,61.70
2018-04-28T23:50:15.555Z,61.60
2018-04-28T23:52:43.057Z,60.70
2018-04-28T23:55:11.331Z,60.10
2018-04-28T23:57:39.613Z,60.30
